sensor_id;sensor_type;location;lat;lon;timestamp;P1;durP1;ratioP1;P2;durP2;ratioP2
66179;SDS011;52986;44.028;20.466;2023-04-25T00:00:37;14.77;;;7.07;;
66179;SDS011;52986;44.028;20.466;2023-04-25T00:03:02;14.83;;;7.07;;
66179;SDS011;52986;44.028;20.466;2023-04-25T00:05:28;15.65;;;6.95;;
66179;SDS011;52986;44.028;20.466;2023-04-25T00:07:54;13.43;;;6.18;;
66179;SDS011;52986;44.028;20.466;2023-04-25T00:10:20;15.82;;;7.03;;
66179;SDS011;52986;44.028;20.466;2023-04-25T00:12:45;13.45;;;6.90;;
66179;SDS011;52986;44.028;20.466;2023-04-25T00:15:11;15.07;;;7.40;;
66179;SDS011;52986;44.028;20.466;2023-04-25T00:17:36;15.00;;;7.38;;
66179;SDS011;52986;44.028;20.466;2023-04-25T00:20:03;13.73;;;6.68;;
66179;SDS011;52986;44.028;20.466;2023-04-25T00:22:36;14.00;;;6.50;;
66179;SDS011;52986;44.028;20.466;2023-04-25T00:25:03;13.40;;;5.80;;
66179;SDS011;52986;44.028;20.466;2023-04-25T00:27:29;11.48;;;5.43;;
66179;SDS011;52986;44.028;20.466;2023-04-25T00:29:55;13.93;;;6.65;;
66179;SDS011;52986;44.028;20.466;2023-04-25T00:32:20;14.30;;;5.40;;
66179;SDS011;52986;44.028;20.466;2023-04-25T00:34:45;13.52;;;6.22;;
66179;SDS011;52986;44.028;20.466;2023-04-25T00:37:11;14.30;;;6.50;;
66179;SDS011;52986;44.028;20.466;2023-04-25T00:39:37;13.70;;;6.70;;
66179;SDS011;52986;44.028;20.466;2023-04-25T00:42:03;14.35;;;5.82;;
66179;SDS011;52986;44.028;20.466;2023-04-25T00:44:29;14.82;;;6.75;;
66179;SDS011;52986;44.028;20.466;2023-04-25T00:46:55;13.50;;;5.60;;
66179;SDS011;52986;44.028;20.466;2023-04-25T00:49:21;14.32;;;6.95;;
66179;SDS011;52986;44.028;20.466;2023-04-25T00:51:46;15.13;;;6.88;;
66179;SDS011;52986;44.028;20.466;2023-04-25T00:54:12;13.20;;;6.60;;
66179;SDS011;52986;44.028;20.466;2023-04-25T00:56:38;12.85;;;5.95;;
66179;SDS011;52986;44.028;20.466;2023-04-25T00:59:04;12.27;;;5.93;;
66179;SDS011;52986;44.028;20.466;2023-04-25T01:01:30;11.70;;;5.15;;
66179;SDS011;52986;44.028;20.466;2023-04-25T01:03:56;10.85;;;4.88;;
66179;SDS011;52986;44.028;20.466;2023-04-25T01:06:23;10.48;;;5.25;;
66179;SDS011;52986;44.028;20.466;2023-04-25T01:08:49;12.93;;;5.30;;
66179;SDS011;52986;44.028;20.466;2023-04-25T01:11:16;13.00;;;5.88;;
66179;SDS011;52986;44.028;20.466;2023-04-25T01:13:41;12.13;;;5.28;;
66179;SDS011;52986;44.028;20.466;2023-04-25T01:16:07;11.23;;;5.35;;
66179;SDS011;52986;44.028;20.466;2023-04-25T01:18:32;12.57;;;5.22;;
66179;SDS011;52986;44.028;20.466;2023-04-25T01:21:05;12.07;;;5.45;;
66179;SDS011;52986;44.028;20.466;2023-04-25T01:23:33;13.70;;;5.57;;
66179;SDS011;52986;44.028;20.466;2023-04-25T01:25:58;11.65;;;5.03;;
66179;SDS011;52986;44.028;20.466;2023-04-25T01:28:24;12.30;;;5.60;;
66179;SDS011;52986;44.028;20.466;2023-04-25T01:30:49;11.55;;;5.03;;
66179;SDS011;52986;44.028;20.466;2023-04-25T01:33:16;11.82;;;5.00;;
66179;SDS011;52986;44.028;20.466;2023-04-25T01:35:42;12.55;;;5.32;;
66179;SDS011;52986;44.028;20.466;2023-04-25T01:38:07;12.88;;;5.22;;
66179;SDS011;52986;44.028;20.466;2023-04-25T01:40:33;13.77;;;5.68;;
66179;SDS011;52986;44.028;20.466;2023-04-25T01:43:00;13.70;;;5.65;;
66179;SDS011;52986;44.028;20.466;2023-04-25T01:45:25;12.82;;;5.63;;
66179;SDS011;52986;44.028;20.466;2023-04-25T01:47:51;13.40;;;5.68;;
66179;SDS011;52986;44.028;20.466;2023-04-25T01:50:17;11.02;;;5.18;;
66179;SDS011;52986;44.028;20.466;2023-04-25T01:52:43;10.88;;;4.70;;
66179;SDS011;52986;44.028;20.466;2023-04-25T01:55:09;10.55;;;4.68;;
66179;SDS011;52986;44.028;20.466;2023-04-25T01:57:34;11.65;;;4.40;;
66179;SDS011;52986;44.028;20.466;2023-04-25T02:00:02;11.77;;;4.70;;
66179;SDS011;52986;44.028;20.466;2023-04-25T02:02:29;11.80;;;4.38;;
66179;SDS011;52986;44.028;20.466;2023-04-25T02:04:55;11.35;;;4.90;;
66179;SDS011;52986;44.028;20.466;2023-04-25T02:07:21;10.98;;;4.82;;
66179;SDS011;52986;44.028;20.466;2023-04-25T02:09:46;12.00;;;4.93;;
66179;SDS011;52986;44.028;20.466;2023-04-25T02:12:12;12.27;;;4.95;;
66179;SDS011;52986;44.028;20.466;2023-04-25T02:14:37;9.13;;;3.95;;
66179;SDS011;52986;44.028;20.466;2023-04-25T02:17:03;9.23;;;3.83;;
66179;SDS011;52986;44.028;20.466;2023-04-25T02:19:28;8.52;;;3.90;;
66179;SDS011;52986;44.028;20.466;2023-04-25T02:21:54;9.45;;;3.72;;
66179;SDS011;52986;44.028;20.466;2023-04-25T02:24:21;10.27;;;4.10;;
66179;SDS011;52986;44.028;20.466;2023-04-25T02:26:46;9.77;;;4.03;;
66179;SDS011;52986;44.028;20.466;2023-04-25T02:29:12;10.33;;;3.90;;
66179;SDS011;52986;44.028;20.466;2023-04-25T02:31:38;10.27;;;3.90;;
66179;SDS011;52986;44.028;20.466;2023-04-25T02:34:03;9.60;;;3.40;;
66179;SDS011;52986;44.028;20.466;2023-04-25T02:36:29;7.80;;;3.25;;
66179;SDS011;52986;44.028;20.466;2023-04-25T02:38:57;9.07;;;3.47;;
66179;SDS011;52986;44.028;20.466;2023-04-25T02:41:22;9.75;;;3.53;;
66179;SDS011;52986;44.028;20.466;2023-04-25T02:43:48;12.30;;;3.90;;
66179;SDS011;52986;44.028;20.466;2023-04-25T02:46:13;11.10;;;4.75;;
66179;SDS011;52986;44.028;20.466;2023-04-25T02:48:39;12.82;;;6.15;;
66179;SDS011;52986;44.028;20.466;2023-04-25T02:51:04;13.68;;;5.90;;
66179;SDS011;52986;44.028;20.466;2023-04-25T02:53:30;13.70;;;6.05;;
66179;SDS011;52986;44.028;20.466;2023-04-25T02:55:55;11.75;;;5.10;;
66179;SDS011;52986;44.028;20.466;2023-04-25T02:58:23;11.55;;;5.20;;
66179;SDS011;52986;44.028;20.466;2023-04-25T03:00:48;11.35;;;5.03;;
66179;SDS011;52986;44.028;20.466;2023-04-25T03:03:14;11.23;;;4.88;;
66179;SDS011;52986;44.028;20.466;2023-04-25T03:05:42;11.50;;;5.03;;
66179;SDS011;52986;44.028;20.466;2023-04-25T03:08:08;11.32;;;4.38;;
66179;SDS011;52986;44.028;20.466;2023-04-25T03:10:33;9.33;;;4.00;;
66179;SDS011;52986;44.028;20.466;2023-04-25T03:12:58;8.77;;;3.47;;
66179;SDS011;52986;44.028;20.466;2023-04-25T03:15:24;9.18;;;3.47;;
66179;SDS011;52986;44.028;20.466;2023-04-25T03:17:49;9.57;;;3.80;;
66179;SDS011;52986;44.028;20.466;2023-04-25T03:20:15;8.98;;;3.78;;
66179;SDS011;52986;44.028;20.466;2023-04-25T03:22:41;9.88;;;4.50;;
66179;SDS011;52986;44.028;20.466;2023-04-25T03:25:06;11.43;;;4.50;;
66179;SDS011;52986;44.028;20.466;2023-04-25T03:27:32;10.65;;;4.47;;
66179;SDS011;52986;44.028;20.466;2023-04-25T03:29:58;12.05;;;4.78;;
66179;SDS011;52986;44.028;20.466;2023-04-25T03:32:23;10.55;;;4.22;;
66179;SDS011;52986;44.028;20.466;2023-04-25T03:34:49;11.95;;;4.43;;
66179;SDS011;52986;44.028;20.466;2023-04-25T03:37:14;9.43;;;3.72;;
66179;SDS011;52986;44.028;20.466;2023-04-25T03:39:40;8.20;;;3.08;;
66179;SDS011;52986;44.028;20.466;2023-04-25T03:42:05;6.65;;;2.78;;
66179;SDS011;52986;44.028;20.466;2023-04-25T03:44:30;7.07;;;2.60;;
66179;SDS011;52986;44.028;20.466;2023-04-25T03:46:56;7.07;;;2.70;;
66179;SDS011;52986;44.028;20.466;2023-04-25T03:49:21;7.88;;;3.00;;
66179;SDS011;52986;44.028;20.466;2023-04-25T03:51:46;8.15;;;2.63;;
66179;SDS011;52986;44.028;20.466;2023-04-25T03:54:15;7.18;;;2.75;;
66179;SDS011;52986;44.028;20.466;2023-04-25T03:56:40;7.20;;;2.80;;
66179;SDS011;52986;44.028;20.466;2023-04-25T03:59:06;8.82;;;3.60;;
66179;SDS011;52986;44.028;20.466;2023-04-25T04:01:31;9.43;;;3.53;;
66179;SDS011;52986;44.028;20.466;2023-04-25T04:03:57;17.83;;;8.43;;
66179;SDS011;52986;44.028;20.466;2023-04-25T04:06:22;12.15;;;5.35;;
66179;SDS011;52986;44.028;20.466;2023-04-25T04:08:47;13.27;;;4.78;;
66179;SDS011;52986;44.028;20.466;2023-04-25T04:11:13;9.90;;;4.30;;
66179;SDS011;52986;44.028;20.466;2023-04-25T04:13:38;13.35;;;5.93;;
66179;SDS011;52986;44.028;20.466;2023-04-25T04:16:03;12.27;;;5.47;;
66179;SDS011;52986;44.028;20.466;2023-04-25T04:18:29;11.15;;;5.20;;
66179;SDS011;52986;44.028;20.466;2023-04-25T04:20:55;11.43;;;4.93;;
66179;SDS011;52986;44.028;20.466;2023-04-25T04:23:23;11.57;;;5.22;;
66179;SDS011;52986;44.028;20.466;2023-04-25T04:25:51;13.60;;;5.90;;
66179;SDS011;52986;44.028;20.466;2023-04-25T04:28:17;13.45;;;5.80;;
66179;SDS011;52986;44.028;20.466;2023-04-25T04:30:42;13.20;;;6.03;;
66179;SDS011;52986;44.028;20.466;2023-04-25T04:33:12;13.00;;;6.50;;
66179;SDS011;52986;44.028;20.466;2023-04-25T04:35:37;11.98;;;6.03;;
66179;SDS011;52986;44.028;20.466;2023-04-25T04:38:03;12.23;;;5.97;;
66179;SDS011;52986;44.028;20.466;2023-04-25T04:40:28;12.73;;;6.40;;
66179;SDS011;52986;44.028;20.466;2023-04-25T04:42:56;12.73;;;6.40;;
66179;SDS011;52986;44.028;20.466;2023-04-25T04:45:22;12.57;;;6.38;;
66179;SDS011;52986;44.028;20.466;2023-04-25T04:47:48;12.52;;;6.05;;
66179;SDS011;52986;44.028;20.466;2023-04-25T04:50:14;15.55;;;6.93;;
66179;SDS011;52986;44.028;20.466;2023-04-25T04:52:40;14.13;;;6.97;;
66179;SDS011;52986;44.028;20.466;2023-04-25T04:55:05;14.05;;;6.85;;
66179;SDS011;52986;44.028;20.466;2023-04-25T04:57:31;15.50;;;7.05;;
66179;SDS011;52986;44.028;20.466;2023-04-25T04:59:57;12.07;;;6.72;;
66179;SDS011;52986;44.028;20.466;2023-04-25T05:02:23;14.15;;;6.85;;
66179;SDS011;52986;44.028;20.466;2023-04-25T05:04:49;15.38;;;7.88;;
66179;SDS011;52986;44.028;20.466;2023-04-25T05:07:16;15.10;;;7.57;;
66179;SDS011;52986;44.028;20.466;2023-04-25T05:09:41;14.80;;;7.25;;
66179;SDS011;52986;44.028;20.466;2023-04-25T05:12:06;16.80;;;7.93;;
66179;SDS011;52986;44.028;20.466;2023-04-25T05:14:32;30.30;;;12.50;;
66179;SDS011;52986;44.028;20.466;2023-04-25T05:16:57;27.73;;;12.40;;
66179;SDS011;52986;44.028;20.466;2023-04-25T05:19:23;21.80;;;10.77;;
66179;SDS011;52986;44.028;20.466;2023-04-25T05:21:48;19.48;;;9.32;;
66179;SDS011;52986;44.028;20.466;2023-04-25T05:24:14;15.13;;;7.18;;
66179;SDS011;52986;44.028;20.466;2023-04-25T05:26:40;14.82;;;6.85;;
66179;SDS011;52986;44.028;20.466;2023-04-25T05:29:05;13.13;;;5.15;;
66179;SDS011;52986;44.028;20.466;2023-04-25T05:31:31;13.38;;;5.88;;
66179;SDS011;52986;44.028;20.466;2023-04-25T05:33:56;13.52;;;6.13;;
66179;SDS011;52986;44.028;20.466;2023-04-25T05:36:22;14.45;;;6.57;;
66179;SDS011;52986;44.028;20.466;2023-04-25T05:38:47;14.90;;;6.88;;
66179;SDS011;52986;44.028;20.466;2023-04-25T05:41:13;13.50;;;6.10;;
66179;SDS011;52986;44.028;20.466;2023-04-25T05:43:38;11.30;;;5.10;;
66179;SDS011;52986;44.028;20.466;2023-04-25T05:46:03;12.35;;;5.82;;
66179;SDS011;52986;44.028;20.466;2023-04-25T05:48:29;12.05;;;5.85;;
66179;SDS011;52986;44.028;20.466;2023-04-25T05:50:55;13.43;;;6.28;;
66179;SDS011;52986;44.028;20.466;2023-04-25T05:53:20;12.85;;;6.57;;
66179;SDS011;52986;44.028;20.466;2023-04-25T05:55:47;14.20;;;7.38;;
66179;SDS011;52986;44.028;20.466;2023-04-25T05:58:12;10.30;;;3.75;;
66179;SDS011;52986;44.028;20.466;2023-04-25T06:00:38;10.77;;;3.65;;
66179;SDS011;52986;44.028;20.466;2023-04-25T06:03:03;6.93;;;2.30;;
66179;SDS011;52986;44.028;20.466;2023-04-25T06:05:29;6.95;;;2.00;;
66179;SDS011;52986;44.028;20.466;2023-04-25T06:07:54;5.10;;;1.80;;
66179;SDS011;52986;44.028;20.466;2023-04-25T06:10:20;3.50;;;1.50;;
66179;SDS011;52986;44.028;20.466;2023-04-25T06:12:46;3.97;;;1.45;;
66179;SDS011;52986;44.028;20.466;2023-04-25T06:15:11;6.15;;;1.75;;
66179;SDS011;52986;44.028;20.466;2023-04-25T06:17:37;9.35;;;3.05;;
66179;SDS011;52986;44.028;20.466;2023-04-25T06:20:02;5.10;;;1.90;;
66179;SDS011;52986;44.028;20.466;2023-04-25T06:22:29;6.97;;;2.20;;
66179;SDS011;52986;44.028;20.466;2023-04-25T06:24:54;5.75;;;2.35;;
66179;SDS011;52986;44.028;20.466;2023-04-25T06:27:22;4.25;;;1.85;;
66179;SDS011;52986;44.028;20.466;2023-04-25T06:29:47;4.40;;;1.70;;
66179;SDS011;52986;44.028;20.466;2023-04-25T06:32:13;4.43;;;1.90;;
66179;SDS011;52986;44.028;20.466;2023-04-25T06:34:38;4.30;;;1.80;;
66179;SDS011;52986;44.028;20.466;2023-04-25T06:37:03;2.47;;;1.50;;
66179;SDS011;52986;44.028;20.466;2023-04-25T06:39:29;2.88;;;1.55;;
66179;SDS011;52986;44.028;20.466;2023-04-25T06:41:54;4.10;;;1.88;;
66179;SDS011;52986;44.028;20.466;2023-04-25T06:44:20;4.57;;;1.92;;
66179;SDS011;52986;44.028;20.466;2023-04-25T06:46:48;4.90;;;1.90;;
66179;SDS011;52986;44.028;20.466;2023-04-25T06:49:13;4.47;;;1.75;;
66179;SDS011;52986;44.028;20.466;2023-04-25T06:51:38;4.88;;;2.03;;
66179;SDS011;52986;44.028;20.466;2023-04-25T06:54:05;4.32;;;2.10;;
66179;SDS011;52986;44.028;20.466;2023-04-25T06:56:31;5.15;;;2.05;;
66179;SDS011;52986;44.028;20.466;2023-04-25T06:58:56;4.05;;;1.70;;
66179;SDS011;52986;44.028;20.466;2023-04-25T07:01:21;4.07;;;1.90;;
66179;SDS011;52986;44.028;20.466;2023-04-25T07:03:47;3.92;;;1.77;;
66179;SDS011;52986;44.028;20.466;2023-04-25T07:06:12;4.47;;;2.20;;
66179;SDS011;52986;44.028;20.466;2023-04-25T07:08:37;3.90;;;1.80;;
66179;SDS011;52986;44.028;20.466;2023-04-25T07:11:03;4.82;;;2.10;;
66179;SDS011;52986;44.028;20.466;2023-04-25T07:13:28;6.05;;;2.20;;
66179;SDS011;52986;44.028;20.466;2023-04-25T07:15:54;5.00;;;2.05;;
66179;SDS011;52986;44.028;20.466;2023-04-25T07:18:21;4.45;;;2.00;;
66179;SDS011;52986;44.028;20.466;2023-04-25T07:20:46;5.60;;;2.00;;
66179;SDS011;52986;44.028;20.466;2023-04-25T07:23:11;6.15;;;2.03;;
66179;SDS011;52986;44.028;20.466;2023-04-25T07:25:37;3.58;;;1.60;;
66179;SDS011;52986;44.028;20.466;2023-04-25T07:28:02;3.00;;;1.50;;
66179;SDS011;52986;44.028;20.466;2023-04-25T07:30:27;3.13;;;1.50;;
66179;SDS011;52986;44.028;20.466;2023-04-25T07:32:53;4.63;;;1.50;;
66179;SDS011;52986;44.028;20.466;2023-04-25T07:35:18;4.22;;;1.80;;
66179;SDS011;52986;44.028;20.466;2023-04-25T07:37:44;4.05;;;1.63;;
66179;SDS011;52986;44.028;20.466;2023-04-25T07:40:09;6.20;;;2.20;;
66179;SDS011;52986;44.028;20.466;2023-04-25T07:42:35;5.63;;;2.30;;
66179;SDS011;52986;44.028;20.466;2023-04-25T07:45:01;5.47;;;2.00;;
66179;SDS011;52986;44.028;20.466;2023-04-25T07:47:26;5.00;;;2.00;;
66179;SDS011;52986;44.028;20.466;2023-04-25T07:49:52;5.65;;;2.58;;
66179;SDS011;52986;44.028;20.466;2023-04-25T07:52:17;6.07;;;2.10;;
66179;SDS011;52986;44.028;20.466;2023-04-25T07:54:43;5.90;;;2.33;;
66179;SDS011;52986;44.028;20.466;2023-04-25T07:57:08;9.85;;;3.15;;
66179;SDS011;52986;44.028;20.466;2023-04-25T07:59:34;6.68;;;2.95;;
66179;SDS011;52986;44.028;20.466;2023-04-25T08:02:00;7.63;;;2.95;;
66179;SDS011;52986;44.028;20.466;2023-04-25T08:04:25;7.10;;;2.97;;
66179;SDS011;52986;44.028;20.466;2023-04-25T08:06:51;6.65;;;2.90;;
66179;SDS011;52986;44.028;20.466;2023-04-25T08:09:17;11.80;;;3.00;;
66179;SDS011;52986;44.028;20.466;2023-04-25T08:11:43;10.18;;;3.40;;
66179;SDS011;52986;44.028;20.466;2023-04-25T08:14:12;8.50;;;2.72;;
66179;SDS011;52986;44.028;20.466;2023-04-25T08:16:37;7.13;;;2.92;;
66179;SDS011;52986;44.028;20.466;2023-04-25T08:19:03;6.65;;;2.70;;
66179;SDS011;52986;44.028;20.466;2023-04-25T08:21:29;6.88;;;2.72;;
66179;SDS011;52986;44.028;20.466;2023-04-25T08:23:56;14.82;;;2.90;;
66179;SDS011;52986;44.028;20.466;2023-04-25T08:26:23;10.38;;;2.88;;
66179;SDS011;52986;44.028;20.466;2023-04-25T08:28:49;9.43;;;3.22;;
66179;SDS011;52986;44.028;20.466;2023-04-25T08:31:15;7.93;;;2.75;;
66179;SDS011;52986;44.028;20.466;2023-04-25T08:33:40;9.15;;;2.70;;
66179;SDS011;52986;44.028;20.466;2023-04-25T08:36:06;12.23;;;2.80;;
66179;SDS011;52986;44.028;20.466;2023-04-25T08:38:34;9.50;;;2.97;;
66179;SDS011;52986;44.028;20.466;2023-04-25T08:41:01;7.20;;;2.75;;
66179;SDS011;52986;44.028;20.466;2023-04-25T08:43:28;10.65;;;3.00;;
66179;SDS011;52986;44.028;20.466;2023-04-25T08:45:56;9.85;;;2.70;;
66179;SDS011;52986;44.028;20.466;2023-04-25T08:48:25;14.55;;;3.10;;
66179;SDS011;52986;44.028;20.466;2023-04-25T08:50:53;9.57;;;2.70;;
66179;SDS011;52986;44.028;20.466;2023-04-25T08:53:30;8.32;;;2.53;;
66179;SDS011;52986;44.028;20.466;2023-04-25T08:55:58;10.15;;;3.08;;
66179;SDS011;52986;44.028;20.466;2023-04-25T08:58:26;8.73;;;2.70;;
66179;SDS011;52986;44.028;20.466;2023-04-25T09:00:53;10.18;;;2.50;;
66179;SDS011;52986;44.028;20.466;2023-04-25T09:03:21;9.52;;;3.10;;
66179;SDS011;52986;44.028;20.466;2023-04-25T09:05:47;7.80;;;2.60;;
66179;SDS011;52986;44.028;20.466;2023-04-25T09:08:12;7.10;;;2.78;;
66179;SDS011;52986;44.028;20.466;2023-04-25T09:10:40;7.72;;;2.70;;
66179;SDS011;52986;44.028;20.466;2023-04-25T09:13:14;7.55;;;2.90;;
66179;SDS011;52986;44.028;20.466;2023-04-25T09:15:54;12.35;;;2.55;;
66179;SDS011;52986;44.028;20.466;2023-04-25T09:18:28;7.35;;;2.03;;
66179;SDS011;52986;44.028;20.466;2023-04-25T09:20:54;8.77;;;2.50;;
66179;SDS011;52986;44.028;20.466;2023-04-25T09:23:21;11.02;;;2.50;;
66179;SDS011;52986;44.028;20.466;2023-04-25T09:25:49;9.70;;;2.45;;
66179;SDS011;52986;44.028;20.466;2023-04-25T09:28:25;7.82;;;2.70;;
66179;SDS011;52986;44.028;20.466;2023-04-25T09:30:54;8.68;;;2.60;;
66179;SDS011;52986;44.028;20.466;2023-04-25T09:33:26;6.82;;;2.10;;
66179;SDS011;52986;44.028;20.466;2023-04-25T09:36:14;7.72;;;1.85;;
66179;SDS011;52986;44.028;20.466;2023-04-25T09:38:40;9.43;;;2.50;;
66179;SDS011;52986;44.028;20.466;2023-04-25T09:41:07;10.05;;;2.38;;
66179;SDS011;52986;44.028;20.466;2023-04-25T09:43:34;4.25;;;1.60;;
66179;SDS011;52986;44.028;20.466;2023-04-25T09:46:00;9.10;;;1.90;;
66179;SDS011;52986;44.028;20.466;2023-04-25T09:48:26;5.60;;;1.65;;
66179;SDS011;52986;44.028;20.466;2023-04-25T09:51:11;4.63;;;1.90;;
66179;SDS011;52986;44.028;20.466;2023-04-25T09:53:44;2.85;;;1.60;;
66179;SDS011;52986;44.028;20.466;2023-04-25T09:56:11;7.07;;;1.73;;
66179;SDS011;52986;44.028;20.466;2023-04-25T09:58:38;5.60;;;1.60;;
66179;SDS011;52986;44.028;20.466;2023-04-25T10:01:08;4.25;;;1.58;;
66179;SDS011;52986;44.028;20.466;2023-04-25T10:03:36;8.05;;;2.00;;
66179;SDS011;52986;44.028;20.466;2023-04-25T10:06:08;5.07;;;1.83;;
66179;SDS011;52986;44.028;20.466;2023-04-25T10:08:37;6.85;;;1.80;;
66179;SDS011;52986;44.028;20.466;2023-04-25T10:11:04;5.78;;;1.70;;
66179;SDS011;52986;44.028;20.466;2023-04-25T10:13:31;8.43;;;1.65;;
66179;SDS011;52986;44.028;20.466;2023-04-25T10:15:58;6.63;;;1.80;;
66179;SDS011;52986;44.028;20.466;2023-04-25T10:18:25;7.63;;;1.80;;
66179;SDS011;52986;44.028;20.466;2023-04-25T10:20:53;5.82;;;1.75;;
66179;SDS011;52986;44.028;20.466;2023-04-25T10:23:20;5.85;;;2.28;;
66179;SDS011;52986;44.028;20.466;2023-04-25T10:25:46;5.10;;;1.60;;
66179;SDS011;52986;44.028;20.466;2023-04-25T10:28:12;5.50;;;1.60;;
66179;SDS011;52986;44.028;20.466;2023-04-25T10:30:37;2.60;;;1.50;;
66179;SDS011;52986;44.028;20.466;2023-04-25T10:33:03;7.78;;;1.70;;
66179;SDS011;52986;44.028;20.466;2023-04-25T10:35:43;4.35;;;1.60;;
66179;SDS011;52986;44.028;20.466;2023-04-25T10:38:10;6.60;;;1.90;;
66179;SDS011;52986;44.028;20.466;2023-04-25T10:40:37;5.88;;;1.90;;
66179;SDS011;52986;44.028;20.466;2023-04-25T10:45:56;17.50;;;3.22;;
66179;SDS011;52986;44.028;20.466;2023-04-25T10:48:28;6.70;;;2.30;;
66179;SDS011;52986;44.028;20.466;2023-04-25T10:51:10;8.52;;;2.47;;
66179;SDS011;52986;44.028;20.466;2023-04-25T10:53:36;8.23;;;2.60;;
66179;SDS011;52986;44.028;20.466;2023-04-25T10:56:18;9.75;;;2.47;;
66179;SDS011;52986;44.028;20.466;2023-04-25T10:58:45;8.10;;;2.80;;
66179;SDS011;52986;44.028;20.466;2023-04-25T11:01:12;11.00;;;3.58;;
66179;SDS011;52986;44.028;20.466;2023-04-25T11:03:40;5.75;;;3.05;;
66179;SDS011;52986;44.028;20.466;2023-04-25T11:06:08;8.07;;;3.75;;
66179;SDS011;52986;44.028;20.466;2023-04-25T11:11:15;10.23;;;3.40;;
66179;SDS011;52986;44.028;20.466;2023-04-25T11:13:41;11.25;;;3.05;;
66179;SDS011;52986;44.028;20.466;2023-04-25T11:16:07;8.15;;;3.22;;
66179;SDS011;52986;44.028;20.466;2023-04-25T11:18:33;6.97;;;3.00;;
66179;SDS011;52986;44.028;20.466;2023-04-25T11:20:59;5.63;;;2.60;;
66179;SDS011;52986;44.028;20.466;2023-04-25T11:23:25;7.18;;;2.60;;
66179;SDS011;52986;44.028;20.466;2023-04-25T11:25:51;5.05;;;2.50;;
66179;SDS011;52986;44.028;20.466;2023-04-25T11:28:21;6.68;;;2.72;;
66179;SDS011;52986;44.028;20.466;2023-04-25T11:30:50;5.53;;;2.72;;
66179;SDS011;52986;44.028;20.466;2023-04-25T11:33:16;8.57;;;3.22;;
66179;SDS011;52986;44.028;20.466;2023-04-25T11:35:41;7.13;;;3.03;;
66179;SDS011;52986;44.028;20.466;2023-04-25T11:38:07;7.57;;;3.13;;
66179;SDS011;52986;44.028;20.466;2023-04-25T11:40:33;5.93;;;2.90;;
66179;SDS011;52986;44.028;20.466;2023-04-25T11:43:00;6.25;;;2.75;;
66179;SDS011;52986;44.028;20.466;2023-04-25T11:45:26;6.30;;;2.53;;
66179;SDS011;52986;44.028;20.466;2023-04-25T11:47:52;9.55;;;3.35;;
66179;SDS011;52986;44.028;20.466;2023-04-25T11:50:18;6.13;;;2.78;;
66179;SDS011;52986;44.028;20.466;2023-04-25T11:52:47;7.68;;;2.85;;
66179;SDS011;52986;44.028;20.466;2023-04-25T11:55:17;9.45;;;3.20;;
66179;SDS011;52986;44.028;20.466;2023-04-25T11:57:44;8.52;;;3.70;;
66179;SDS011;52986;44.028;20.466;2023-04-25T12:02:51;8.80;;;3.70;;
66179;SDS011;52986;44.028;20.466;2023-04-25T12:05:23;16.40;;;4.28;;
66179;SDS011;52986;44.028;20.466;2023-04-25T12:07:50;10.20;;;3.90;;
66179;SDS011;52986;44.028;20.466;2023-04-25T12:10:16;9.63;;;3.47;;
66179;SDS011;52986;44.028;20.466;2023-04-25T12:12:43;10.30;;;3.70;;
66179;SDS011;52986;44.028;20.466;2023-04-25T12:15:16;8.10;;;3.65;;
66179;SDS011;52986;44.028;20.466;2023-04-25T12:17:53;8.75;;;3.63;;
66179;SDS011;52986;44.028;20.466;2023-04-25T12:20:24;8.02;;;3.03;;
66179;SDS011;52986;44.028;20.466;2023-04-25T12:22:51;8.80;;;3.20;;
66179;SDS011;52986;44.028;20.466;2023-04-25T12:28:19;7.88;;;3.40;;
66179;SDS011;52986;44.028;20.466;2023-04-25T12:31:01;9.45;;;2.70;;
66179;SDS011;52986;44.028;20.466;2023-04-25T12:33:28;10.98;;;4.43;;
66179;SDS011;52986;44.028;20.466;2023-04-25T12:36:04;10.00;;;4.05;;
66179;SDS011;52986;44.028;20.466;2023-04-25T12:38:37;8.88;;;3.88;;
66179;SDS011;52986;44.028;20.466;2023-04-25T12:41:03;6.97;;;3.00;;
66179;SDS011;52986;44.028;20.466;2023-04-25T12:43:29;10.18;;;4.20;;
66179;SDS011;52986;44.028;20.466;2023-04-25T12:45:55;10.20;;;3.97;;
66179;SDS011;52986;44.028;20.466;2023-04-25T12:48:21;9.18;;;3.92;;
66179;SDS011;52986;44.028;20.466;2023-04-25T12:50:47;11.57;;;5.68;;
66179;SDS011;52986;44.028;20.466;2023-04-25T12:53:18;10.18;;;3.90;;
66179;SDS011;52986;44.028;20.466;2023-04-25T12:55:44;9.07;;;3.53;;
66179;SDS011;52986;44.028;20.466;2023-04-25T12:58:13;10.45;;;4.25;;
66179;SDS011;52986;44.028;20.466;2023-04-25T13:00:39;11.23;;;4.20;;
66179;SDS011;52986;44.028;20.466;2023-04-25T13:03:04;9.30;;;3.70;;
66179;SDS011;52986;44.028;20.466;2023-04-25T13:05:30;11.40;;;4.38;;
66179;SDS011;52986;44.028;20.466;2023-04-25T13:07:56;11.00;;;3.60;;
66179;SDS011;52986;44.028;20.466;2023-04-25T13:10:22;8.25;;;3.50;;
66179;SDS011;52986;44.028;20.466;2023-04-25T13:12:47;12.00;;;4.40;;
66179;SDS011;52986;44.028;20.466;2023-04-25T13:15:13;9.60;;;4.32;;
66179;SDS011;52986;44.028;20.466;2023-04-25T13:17:40;13.98;;;4.00;;
66179;SDS011;52986;44.028;20.466;2023-04-25T13:20:06;9.15;;;3.80;;
66179;SDS011;52986;44.028;20.466;2023-04-25T13:22:34;9.52;;;4.00;;
66179;SDS011;52986;44.028;20.466;2023-04-25T13:25:01;9.73;;;4.25;;
66179;SDS011;52986;44.028;20.466;2023-04-25T13:27:27;9.77;;;4.60;;
66179;SDS011;52986;44.028;20.466;2023-04-25T13:29:53;11.20;;;4.00;;
66179;SDS011;52986;44.028;20.466;2023-04-25T13:32:18;10.73;;;3.90;;
66179;SDS011;52986;44.028;20.466;2023-04-25T13:34:43;8.27;;;3.80;;
66179;SDS011;52986;44.028;20.466;2023-04-25T13:37:09;9.82;;;4.15;;
66179;SDS011;52986;44.028;20.466;2023-04-25T13:39:34;8.70;;;3.78;;
66179;SDS011;52986;44.028;20.466;2023-04-25T13:41:59;8.52;;;4.00;;
66179;SDS011;52986;44.028;20.466;2023-04-25T13:44:25;9.38;;;3.40;;
66179;SDS011;52986;44.028;20.466;2023-04-25T13:46:50;8.45;;;3.97;;
66179;SDS011;52986;44.028;20.466;2023-04-25T13:49:16;8.70;;;3.90;;
66179;SDS011;52986;44.028;20.466;2023-04-25T13:51:41;11.18;;;5.00;;
66179;SDS011;52986;44.028;20.466;2023-04-25T13:54:07;9.50;;;4.55;;
66179;SDS011;52986;44.028;20.466;2023-04-25T13:56:32;12.35;;;4.45;;
66179;SDS011;52986;44.028;20.466;2023-04-25T13:58:58;10.65;;;5.00;;
66179;SDS011;52986;44.028;20.466;2023-04-25T14:01:23;10.68;;;4.90;;
66179;SDS011;52986;44.028;20.466;2023-04-25T14:03:48;13.55;;;5.68;;
66179;SDS011;52986;44.028;20.466;2023-04-25T14:06:14;12.45;;;6.10;;
66179;SDS011;52986;44.028;20.466;2023-04-25T14:08:46;14.25;;;6.13;;
66179;SDS011;52986;44.028;20.466;2023-04-25T14:11:11;10.95;;;4.88;;
66179;SDS011;52986;44.028;20.466;2023-04-25T14:13:37;9.05;;;3.92;;
66179;SDS011;52986;44.028;20.466;2023-04-25T14:16:02;8.30;;;3.70;;
66179;SDS011;52986;44.028;20.466;2023-04-25T14:18:28;8.13;;;3.63;;
66179;SDS011;52986;44.028;20.466;2023-04-25T14:20:53;9.52;;;3.88;;
66179;SDS011;52986;44.028;20.466;2023-04-25T14:23:18;9.02;;;4.25;;
66179;SDS011;52986;44.028;20.466;2023-04-25T14:25:44;10.88;;;4.13;;
66179;SDS011;52986;44.028;20.466;2023-04-25T14:28:10;11.25;;;4.15;;
66179;SDS011;52986;44.028;20.466;2023-04-25T14:30:35;18.52;;;9.65;;
66179;SDS011;52986;44.028;20.466;2023-04-25T14:33:01;11.07;;;4.75;;
66179;SDS011;52986;44.028;20.466;2023-04-25T14:35:26;9.85;;;4.22;;